FIN152 KATL-NZAA
Flight info
| Callsign | FIN152 |
|---|---|
| Flight time | N/A |
| Altitude | 34000 |
| Route | POUNC2 GRGIA DCT MHZ DCT LFK J27 SAT DCT RUDLO DCT NABAS DCT VESKI DCT MEDES DCT TAGMO DCT 21N120W/N0500F360 16N130W 05N140W/N0492F380 03S150W 11S160W/N0486F400 20S170W 29S180W/N0488F410 DCT MOMTA DCT IBESO |
| Aircraft | A359/H-SDE2E3GHIJ3J4J5LM1ORWXY/LB1D1 |
Departure
| Time | 2026-05-05 03:39 |
|---|---|
| Airport | Hartsfield Jackson Atlanta International Airport (KATL) |
Arrival
| Time | N/A |
|---|---|
| Airport | Auckland International Airport (NZAA) |
| Time | Latitude | Longitude | Altitude | Speed | Heading |
|---|---|---|---|---|---|
| 2026-05-05 03:02 | 33.64348 | -84.42632 | 1023 ft | 0 kts | 88° |
| 2026-05-05 03:31 | 33.64348 | -84.42640 | 1023 ft | 3 kts | 88° |
| 2026-05-05 03:31 | 33.64346 | -84.42664 | 1023 ft | 3 kts | 76° |
| 2026-05-05 03:31 | 33.64339 | -84.42686 | 1024 ft | 3 kts | 56° |
| 2026-05-05 03:31 | 33.64326 | -84.42704 | 1023 ft | 3 kts | 35° |
| 2026-05-05 03:32 | 33.64308 | -84.42716 | 1023 ft | 3 kts | 14° |
| 2026-05-05 03:32 | 33.64298 | -84.42718 | 1023 ft | 0 kts | 7° |
| 2026-05-05 03:35 | 33.64307 | -84.42718 | 1023 ft | 6 kts | 3° |
| 2026-05-05 03:35 | 33.64377 | -84.42719 | 1021 ft | 12 kts | 356° |
| 2026-05-05 03:35 | 33.64460 | -84.42686 | 1023 ft | 15 kts | 56° |
| 2026-05-05 03:35 | 33.64469 | -84.42543 | 1022 ft | 21 kts | 89° |
| 2026-05-05 03:36 | 33.64473 | -84.42340 | 1017 ft | 27 kts | 85° |
| 2026-05-05 03:36 | 33.64525 | -84.42130 | 1019 ft | 28 kts | 69° |
| 2026-05-05 03:36 | 33.64541 | -84.41891 | 1019 ft | 30 kts | 89° |
| 2026-05-05 03:36 | 33.64543 | -84.41690 | 1021 ft | 13 kts | 89° |
| 2026-05-05 03:37 | 33.64543 | -84.41567 | 1022 ft | 17 kts | 89° |
| 2026-05-05 03:37 | 33.64545 | -84.41400 | 1020 ft | 22 kts | 90° |
| 2026-05-05 03:37 | 33.64545 | -84.41195 | 1018 ft | 27 kts | 90° |
| 2026-05-05 03:37 | 33.64545 | -84.40947 | 1012 ft | 32 kts | 90° |
| 2026-05-05 03:38 | 33.64548 | -84.40666 | 1007 ft | 35 kts | 81° |
| 2026-05-05 03:38 | 33.64693 | -84.40647 | 1006 ft | 16 kts | 279° |
| 2026-05-05 03:38 | 33.64689 | -84.40848 | 1012 ft | 47 kts | 266° |
| 2026-05-05 03:38 | 33.64686 | -84.41520 | 1023 ft | 112 kts | 269° |
| 2026-05-05 03:39 | 33.64684 | -84.42698 | 1025 ft | 169 kts | 269° |
| 2026-05-05 03:39 | 33.64673 | -84.44224 | 1430 ft | 188 kts | 268° |
| 2026-05-05 03:39 | 33.64767 | -84.45749 | 2165 ft | 178 kts | 274° |
| 2026-05-05 03:39 | 33.64997 | -84.47209 | 2381 ft | 184 kts | 277° |
| 2026-05-05 03:40 | 33.65278 | -84.48772 | 2522 ft | 195 kts | 277° |
| 2026-05-05 03:40 | 33.65568 | -84.50383 | 2696 ft | 206 kts | 277° |
| 2026-05-05 03:40 | 33.65879 | -84.52112 | 2791 ft | 220 kts | 278° |
| 2026-05-05 03:40 | 33.66217 | -84.53963 | 2937 ft | 233 kts | 278° |
| 2026-05-05 03:41 | 33.66568 | -84.55913 | 3112 ft | 245 kts | 278° |
| 2026-05-05 03:41 | 33.66932 | -84.57959 | 3357 ft | 254 kts | 279° |
| 2026-05-05 03:41 | 33.67309 | -84.60061 | 3710 ft | 258 kts | 278° |
| 2026-05-05 03:41 | 33.67662 | -84.62186 | 4080 ft | 262 kts | 278° |
| 2026-05-05 03:42 | 33.68023 | -84.64342 | 4527 ft | 264 kts | 278° |
| 2026-05-05 03:42 | 33.68390 | -84.66479 | 4977 ft | 265 kts | 278° |
| 2026-05-05 03:42 | 33.68758 | -84.68654 | 5433 ft | 266 kts | 278° |
| 2026-05-05 03:42 | 33.69126 | -84.70840 | 5914 ft | 267 kts | 278° |
| 2026-05-05 03:43 | 33.69497 | -84.73028 | 6389 ft | 268 kts | 279° |
| 2026-05-05 03:43 | 33.69650 | -84.75260 | 6829 ft | 267 kts | 262° |
| 2026-05-05 03:43 | 33.69099 | -84.77370 | 7245 ft | 266 kts | 238° |
| 2026-05-05 03:43 | 33.68047 | -84.79201 | 7678 ft | 268 kts | 232° |
| 2026-05-05 03:44 | 33.66912 | -84.80989 | 8110 ft | 270 kts | 233° |
| 2026-05-05 03:44 | 33.65767 | -84.82806 | 8546 ft | 274 kts | 233° |
| 2026-05-05 03:44 | 33.64617 | -84.84644 | 9010 ft | 276 kts | 233° |
| 2026-05-05 03:44 | 33.63480 | -84.86466 | 9454 ft | 279 kts | 233° |
| 2026-05-05 03:45 | 33.62310 | -84.88347 | 9902 ft | 281 kts | 233° |
| 2026-05-05 03:45 | 33.61129 | -84.90250 | 10229 ft | 288 kts | 233° |
| 2026-05-05 03:45 | 33.59908 | -84.92218 | 10421 ft | 300 kts | 233° |
| 2026-05-05 03:45 | 33.58643 | -84.94255 | 10606 ft | 311 kts | 233° |
| 2026-05-05 03:46 | 33.57321 | -84.96384 | 10818 ft | 322 kts | 233° |
| 2026-05-05 03:46 | 33.55959 | -84.98577 | 10992 ft | 333 kts | 233° |
| 2026-05-05 03:46 | 33.54552 | -85.00841 | 11180 ft | 344 kts | 233° |
| 2026-05-05 03:46 | 33.53124 | -85.03137 | 11356 ft | 353 kts | 233° |
| 2026-05-05 03:47 | 33.51632 | -85.05535 | 11534 ft | 363 kts | 233° |
| 2026-05-05 03:47 | 33.50105 | -85.07987 | 11705 ft | 372 kts | 233° |
| 2026-05-05 03:47 | 33.48542 | -85.10493 | 11915 ft | 378 kts | 233° |
| 2026-05-05 03:47 | 33.46957 | -85.13036 | 12270 ft | 381 kts | 233° |
| 2026-05-05 03:48 | 33.45361 | -85.15593 | 12640 ft | 383 kts | 233° |
| 2026-05-05 03:48 | 33.43759 | -85.18159 | 13011 ft | 385 kts | 233° |
| 2026-05-05 03:48 | 33.42278 | -85.20787 | 13370 ft | 386 kts | 241° |
| 2026-05-05 03:48 | 33.41257 | -85.23765 | 13740 ft | 388 kts | 252° |
| 2026-05-05 03:49 | 33.40482 | -85.26868 | 14082 ft | 390 kts | 253° |
| 2026-05-05 03:49 | 33.39729 | -85.29996 | 14387 ft | 392 kts | 253° |
| 2026-05-05 03:49 | 33.38967 | -85.33132 | 14709 ft | 394 kts | 253° |
| 2026-05-05 03:49 | 33.38195 | -85.36284 | 15047 ft | 395 kts | 253° |
| 2026-05-05 03:50 | 33.37417 | -85.39443 | 15353 ft | 397 kts | 253° |
| 2026-05-05 03:50 | 33.36632 | -85.42623 | 15684 ft | 399 kts | 253° |
| 2026-05-05 03:50 | 33.35845 | -85.45802 | 15996 ft | 400 kts | 253° |
| 2026-05-05 03:50 | 33.35049 | -85.49005 | 16327 ft | 402 kts | 253° |
| 2026-05-05 03:51 | 33.34248 | -85.52227 | 16667 ft | 404 kts | 253° |
| 2026-05-05 03:51 | 33.33453 | -85.55416 | 16989 ft | 406 kts | 253° |
| 2026-05-05 03:51 | 33.32644 | -85.58661 | 17309 ft | 408 kts | 254° |
| 2026-05-05 03:51 | 33.31830 | -85.61922 | 17645 ft | 410 kts | 254° |
| 2026-05-05 03:52 | 33.31010 | -85.65202 | 17962 ft | 411 kts | 254° |
| 2026-05-05 03:52 | 33.30188 | -85.68490 | 18260 ft | 414 kts | 254° |
| 2026-05-05 03:52 | 33.29362 | -85.71791 | 18554 ft | 415 kts | 254° |
| 2026-05-05 03:52 | 33.28531 | -85.75104 | 18844 ft | 416 kts | 254° |
| 2026-05-05 03:53 | 33.27707 | -85.78383 | 19131 ft | 417 kts | 255° |
| 2026-05-05 03:53 | 33.26875 | -85.81705 | 19431 ft | 418 kts | 254° |
| 2026-05-05 03:53 | 33.26033 | -85.85042 | 19738 ft | 418 kts | 255° |
| 2026-05-05 03:53 | 33.25190 | -85.88378 | 20044 ft | 419 kts | 255° |
| 2026-05-05 03:54 | 33.24346 | -85.91717 | 20325 ft | 420 kts | 255° |
| 2026-05-05 03:54 | 33.23508 | -85.95027 | 20624 ft | 421 kts | 255° |
| 2026-05-05 03:54 | 33.22659 | -85.98382 | 20919 ft | 422 kts | 255° |
| 2026-05-05 03:54 | 33.21807 | -86.01739 | 21240 ft | 423 kts | 255° |
| 2026-05-05 03:55 | 33.20951 | -86.05112 | 21552 ft | 424 kts | 255° |
| 2026-05-05 03:55 | 33.20093 | -86.08492 | 21859 ft | 425 kts | 255° |
| 2026-05-05 03:55 | 33.19232 | -86.11876 | 22175 ft | 426 kts | 256° |
| 2026-05-05 03:55 | 33.18379 | -86.15224 | 22506 ft | 427 kts | 256° |
| 2026-05-05 03:56 | 33.17512 | -86.18625 | 22822 ft | 428 kts | 256° |
| 2026-05-05 03:56 | 33.16643 | -86.22029 | 23137 ft | 429 kts | 256° |
| 2026-05-05 03:56 | 33.15772 | -86.25438 | 23462 ft | 430 kts | 256° |
| 2026-05-05 03:56 | 33.14893 | -86.28871 | 23754 ft | 432 kts | 256° |
| 2026-05-05 03:57 | 33.14015 | -86.32296 | 24024 ft | 433 kts | 256° |
| 2026-05-05 03:57 | 33.13143 | -86.35695 | 24294 ft | 434 kts | 256° |
| 2026-05-05 03:57 | 33.12253 | -86.39156 | 24584 ft | 435 kts | 257° |
| 2026-05-05 03:57 | 33.11362 | -86.42616 | 24859 ft | 437 kts | 257° |
| 2026-05-05 03:58 | 33.10468 | -86.46088 | 25153 ft | 438 kts | 257° |
| 2026-05-05 03:58 | 33.09570 | -86.49565 | 25441 ft | 439 kts | 257° |
| 2026-05-05 03:58 | 33.08674 | -86.53039 | 25721 ft | 440 kts | 257° |
| 2026-05-05 03:58 | 33.07813 | -86.56513 | 26008 ft | 440 kts | 260° |
| 2026-05-05 03:59 | 33.07108 | -86.60068 | 26305 ft | 439 kts | 262° |
| 2026-05-05 03:59 | 33.06484 | -86.63637 | 26601 ft | 439 kts | 263° |
| 2026-05-05 03:59 | 33.05894 | -86.67220 | 26895 ft | 440 kts | 263° |
| 2026-05-05 03:59 | 33.05324 | -86.70759 | 27167 ft | 441 kts | 264° |
| 2026-05-05 04:00 | 33.04741 | -86.74363 | 27448 ft | 442 kts | 264° |
| 2026-05-05 04:00 | 33.04152 | -86.77955 | 27714 ft | 443 kts | 264° |
| 2026-05-05 04:00 | 33.03552 | -86.81559 | 27983 ft | 444 kts | 264° |
| 2026-05-05 04:00 | 33.02943 | -86.85180 | 28232 ft | 445 kts | 264° |
| 2026-05-05 04:01 | 33.02330 | -86.88802 | 28480 ft | 445 kts | 264° |
| 2026-05-05 04:01 | 33.01717 | -86.92412 | 28718 ft | 446 kts | 264° |
| 2026-05-05 04:01 | 33.01105 | -86.96006 | 28998 ft | 445 kts | 264° |
| 2026-05-05 04:01 | 33.00487 | -86.99616 | 29372 ft | 443 kts | 264° |
| 2026-05-05 04:02 | 32.99873 | -87.03195 | 29775 ft | 440 kts | 264° |
| 2026-05-05 04:02 | 32.99262 | -87.06755 | 30157 ft | 437 kts | 265° |
| 2026-05-05 04:02 | 32.98654 | -87.10294 | 30426 ft | 435 kts | 265° |
| 2026-05-05 04:02 | 32.98052 | -87.13813 | 30689 ft | 433 kts | 265° |
| 2026-05-05 04:03 | 32.97450 | -87.17325 | 30984 ft | 430 kts | 266° |
| 2026-05-05 04:03 | 32.96857 | -87.20774 | 31252 ft | 429 kts | 266° |
| 2026-05-05 04:03 | 32.96258 | -87.24248 | 31544 ft | 427 kts | 266° |
| 2026-05-05 04:03 | 32.95663 | -87.27697 | 31742 ft | 426 kts | 266° |